»·PEaware :: WAT540 KEMT-L52

WAT540 :: KEMT-L52

FLIGHT INFORMATION

Flight Status: Arrived
Operator:
Walker Air Transport
More flights by this operator :: More flights under this callsign
Pilot: Michael R. (33632)
Aircraft: GRUMMAN AERO AA5 CHEETAH TIGER
(AA5)
More flights by this aircraft type
Origin: KEMT El Monte
United States
Destination: L52 Oceano Co
United States
More flights between these airports :: More routes between these airports
Route: NNEDD PORPS SLAPP FRIRR FABEG
File this flight plan on PilotEdge
Remarks:
Altitude:
(Current/Filed)
8,500ft
Speed:
(Current/Filed)
130kts
Departed: 08-Feb-21 01:45 PM
Arrived: 08-Feb-21 03:00 PM
Distance/Time
Traveled:
142nm/1:15
Distance/Time
To Go:
Arrived

Flight Plot

Page will automatically refresh every two minutes.

Flight plan parsing failed; only flown route is shown


Map Options




Map Legend


Flown Route
Filed Route
Departure Airport
Arrival Airport
Navaid (VOR, NDB)
Fix

Horizontal Profiles

Position Reports

Time Latitude Longitude Heading Altitude Ground
Speed
08-Feb-21 13:21 34.084159 -118.033960 25 286ft 0kts
08-Feb-21 13:22 34.084159 -118.033960 25 286ft 0kts
08-Feb-21 13:23 34.084159 -118.033960 25 286ft 0kts
08-Feb-21 13:24 34.084159 -118.033960 25 286ft 0kts
08-Feb-21 13:25 34.084159 -118.033960 25 286ft 0kts
08-Feb-21 13:26 34.084159 -118.033960 25 286ft 0kts
08-Feb-21 13:27 34.084159 -118.033960 25 286ft 0kts
08-Feb-21 13:28 34.084159 -118.033960 25 286ft 0kts
08-Feb-21 13:28 34.084159 -118.033960 25 286ft 0kts
08-Feb-21 13:30 34.084159 -118.033960 25 286ft 0kts
08-Feb-21 13:31 34.084159 -118.033960 25 286ft 0kts
08-Feb-21 13:31 34.084159 -118.033960 25 286ft 0kts
08-Feb-21 13:33 34.084159 -118.033960 25 286ft 0kts
08-Feb-21 13:33 34.084159 -118.033960 25 286ft 0kts
08-Feb-21 13:34 34.084159 -118.033960 25 286ft 0kts
08-Feb-21 13:36 34.084159 -118.033960 25 286ft 0kts
08-Feb-21 13:36 34.084159 -118.033960 25 286ft 0kts
08-Feb-21 13:37 34.084159 -118.033960 25 286ft 0kts
08-Feb-21 13:38 34.084166 -118.033956 20 286ft 0kts
08-Feb-21 13:39 34.084166 -118.033956 20 286ft 0kts
08-Feb-21 13:40 34.084166 -118.033956 20 286ft 0kts
08-Feb-21 13:41 34.084839 -118.034866 16 284ft 10kts
08-Feb-21 13:42 34.089891 -118.032006 25 293ft 15kts
08-Feb-21 13:43 34.090692 -118.031599 302 294ft 0kts
08-Feb-21 13:44 34.080100 -118.038410 207 596ft 80kts
08-Feb-21 13:45 34.075184 -118.055836 355 1492ft 90kts
08-Feb-21 13:46 34.102558 -118.052163 20 2277ft 103kts
08-Feb-21 13:47 34.123304 -118.029445 53 3112ft 104kts
08-Feb-21 13:48 34.144817 -118.007567 12 3909ft 101kts
08-Feb-21 13:49 34.167137 -118.022568 316 4667ft 93kts
08-Feb-21 13:50 34.186221 -118.043616 315 5392ft 92kts
08-Feb-21 13:51 34.204744 -118.064648 315 6076ft 90kts
08-Feb-21 13:52 34.222949 -118.085399 315 6719ft 89kts
08-Feb-21 13:53 34.241820 -118.106923 316 7275ft 94kts
08-Feb-21 13:54 34.261010 -118.128808 315 7818ft 96kts
08-Feb-21 13:55 34.280924 -118.150780 318 8283ft 102kts
08-Feb-21 13:56 34.304315 -118.173881 318 8498ft 113kts
08-Feb-21 13:57 34.330165 -118.199334 318 8493ft 123kts
08-Feb-21 13:58 34.357021 -118.225776 318 8492ft 125kts
08-Feb-21 13:59 34.384152 -118.252513 318 8493ft 126kts
08-Feb-21 14:00 34.411370 -118.279358 319 8494ft 126kts
08-Feb-21 14:01 34.438566 -118.306199 318 8490ft 126kts
08-Feb-21 14:02 34.465348 -118.333395 312 8484ft 125kts
08-Feb-21 14:03 34.489407 -118.364112 311 8480ft 125kts
08-Feb-21 14:04 34.505433 -118.400409 288 8480ft 124kts
08-Feb-21 14:05 34.515756 -118.440295 287 8484ft 124kts
08-Feb-21 14:06 34.525784 -118.480424 287 8489ft 124kts
08-Feb-21 14:07 34.535724 -118.520595 287 8496ft 124kts
08-Feb-21 14:08 34.545658 -118.560890 287 8503ft 124kts
08-Feb-21 14:09 34.555658 -118.601468 287 8504ft 125kts
08-Feb-21 14:10 34.565901 -118.643144 286 8502ft 124kts
08-Feb-21 14:11 34.576026 -118.684431 285 8501ft 124kts
08-Feb-21 14:12 34.586162 -118.725837 285 8497ft 124kts
08-Feb-21 14:13 34.596133 -118.766644 284 8494ft 124kts
08-Feb-21 14:14 34.605998 -118.807086 284 8491ft 124kts
08-Feb-21 14:15 34.615792 -118.847341 284 8490ft 124kts
08-Feb-21 14:16 34.626102 -118.889744 284 8491ft 124kts
08-Feb-21 14:17 34.636601 -118.932980 284 8483ft 126kts
08-Feb-21 14:18 34.646688 -118.974603 284 8486ft 126kts
08-Feb-21 14:19 34.656617 -119.015631 284 8491ft 126kts
08-Feb-21 14:20 34.666667 -119.057221 284 8497ft 126kts
08-Feb-21 14:21 34.676586 -119.098332 284 8498ft 126kts
08-Feb-21 14:22 34.686571 -119.139789 284 8500ft 126kts
08-Feb-21 14:23 34.696493 -119.181058 284 8501ft 127kts
08-Feb-21 14:24 34.706370 -119.222209 284 8503ft 127kts
08-Feb-21 14:25 34.716268 -119.263510 284 8504ft 127kts
08-Feb-21 14:26 34.726121 -119.304687 284 8504ft 127kts
08-Feb-21 14:27 34.736048 -119.346244 284 8502ft 127kts
08-Feb-21 14:28 34.745931 -119.387688 284 8501ft 127kts
08-Feb-21 14:29 34.755837 -119.429297 283 8501ft 128kts
08-Feb-21 14:30 34.765721 -119.470885 283 8502ft 128kts
08-Feb-21 14:31 34.775578 -119.512428 283 8504ft 128kts
08-Feb-21 14:32 34.785463 -119.554178 283 8504ft 128kts
08-Feb-21 14:33 34.795322 -119.595876 283 8502ft 128kts
08-Feb-21 14:34 34.805123 -119.637399 284 8500ft 127kts
08-Feb-21 14:35 34.814952 -119.679103 283 8499ft 127kts
08-Feb-21 14:36 34.824903 -119.721398 284 8478ft 128kts
08-Feb-21 14:37 34.834781 -119.763452 284 8475ft 127kts
08-Feb-21 14:38 34.844481 -119.804801 284 8473ft 126kts
08-Feb-21 14:39 34.854102 -119.845892 284 8471ft 126kts
08-Feb-21 14:40 34.863729 -119.887073 284 8470ft 126kts
08-Feb-21 14:41 34.873308 -119.928124 285 8469ft 126kts
08-Feb-21 14:42 34.882885 -119.969233 285 8469ft 126kts
08-Feb-21 14:43 34.892430 -120.010274 285 8469ft 125kts
08-Feb-21 14:44 34.902102 -120.051948 285 8342ft 133kts
08-Feb-21 14:45 34.913062 -120.098932 285 7884ft 144kts
08-Feb-21 14:46 34.928794 -120.147730 292 7345ft 149kts
08-Feb-21 14:47 34.946796 -120.196970 292 6673ft 151kts
08-Feb-21 14:48 34.964729 -120.246043 292 6020ft 150kts
08-Feb-21 14:49 34.980233 -120.293828 286 5400ft 150kts
08-Feb-21 14:50 34.990543 -120.333590 286 4904ft 149kts
08-Feb-21 14:51 35.003171 -120.381982 289 4305ft 145kts
08-Feb-21 14:52 35.017092 -120.425516 290 3651ft 124kts
08-Feb-21 14:53 35.030961 -120.463555 295 2920ft 123kts
08-Feb-21 14:54 35.046388 -120.500907 293 2214ft 124kts
08-Feb-21 14:55 35.059037 -120.538120 290 1491ft 112kts
08-Feb-21 14:56 35.072679 -120.569230 304 1188ft 88kts
08-Feb-21 14:57 35.085315 -120.591667 300 1011ft 80kts
08-Feb-21 14:59 35.096086 -120.612192 301 241ft 65kts
08-Feb-21 15:00 35.101792 -120.622323 11 14ft 5kts
08-Feb-21 15:01 35.102422 -120.622789 28 14ft 0kts
08-Feb-21 15:02 35.102422 -120.622789 28 14ft 0kts
08-Feb-21 15:03 35.102422 -120.622789 28 14ft 0kts

Navigation Log

Ident Type
Flight plan parsing failed, navigation log unavailable